Bookmark and Share
Track history (hours):
 

Multratug 19

Last reported at 2014-Apr-24 19:33 UTC. Time now 2014-Apr-24 19:41 UTC.
Position N 51°20' E 004°17'.

Length 32 m; draft 5.5 m.

Type: Tug. MMSI: 245875000.

NotesDate/timePositionNaut miles runAvg speedWind from/ knotsBaromVisibWave heightAir tempDewpointWater temp
2014-Apr-24 19:33N 51°20' E 004°17'1 0.8
2014-Apr-24 18:33N 51°21' E 004°16'0 0.1
2014-Apr-24 17:33N 51°21' E 004°16'0 0.0
2014-Apr-24 16:33N 51°21' E 004°16'0 0.0
2014-Apr-24 15:33N 51°21' E 004°16'0 0.0
2014-Apr-24 14:33N 51°21' E 004°16'0 0.0
2014-Apr-24 13:33N 51°21' E 004°16'0 0.0
2014-Apr-24 12:33N 51°21' E 004°16'0 0.0
2014-Apr-24 11:33N 51°21' E 004°16'0 0.0
2014-Apr-24 10:33N 51°21' E 004°16'0 0.0
2014-Apr-24 09:33N 51°21' E 004°16'0 0.0
2014-Apr-24 08:33N 51°21' E 004°16'0 0.0
2014-Apr-24 07:33N 51°21' E 004°16'1 1.4
2014-Apr-24 06:33N 51°20' E 004°17'2 2.3
2014-Apr-24 05:33N 51°17' E 004°16'0 0.1
2014-Apr-24 04:33N 51°17' E 004°15'3 2.9
2014-Apr-24 03:33N 51°20' E 004°17'1 0.7
2014-Apr-24 02:33N 51°21' E 004°16'0 0.0
2014-Apr-24 01:34N 51°21' E 004°16'0 0.0
2014-Apr-24 00:34N 51°21' E 004°16'0 0.0
2014-Apr-23 23:33N 51°21' E 004°16'0 0.0
2014-Apr-23 22:33N 51°21' E 004°16'0 0.0
2014-Apr-23 21:33N 51°21' E 004°16'0 0.0
2014-Apr-23 20:33N 51°21' E 004°16'2 1.7
2014-Apr-23 19:33N 51°21' E 004°14'2 1.7
2014-Apr-23 18:33N 51°21' E 004°16'0 0.0
2014-Apr-23 17:33N 51°21' E 004°16'0 0.0
2014-Apr-23 16:33N 51°21' E 004°16'0 0.0
2014-Apr-23 15:27N 51°21' E 004°16'0 0.0
2014-Apr-23 14:33N 51°21' E 004°16'0 0.0
2014-Apr-23 13:33N 51°21' E 004°16'0 0.0
2014-Apr-23 12:33N 51°21' E 004°16'0 0.0
2014-Apr-23 11:33N 51°21' E 004°16'0 0.0
2014-Apr-23 10:33N 51°21' E 004°16'0 0.0
2014-Apr-23 09:32N 51°21' E 004°16'0 0.0
2014-Apr-23 08:33N 51°21' E 004°16'0 0.0
2014-Apr-23 07:33N 51°21' E 004°16'0 0.0
2014-Apr-23 06:33N 51°21' E 004°16'0 0.5
2014-Apr-23 05:34N 51°21' E 004°16'0 0.1
2014-Apr-23 04:33N 51°21' E 004°16'0 0.5
2014-Apr-23 03:34N 51°21' E 004°17'2 1.9
2014-Apr-23 02:34N 51°22' E 004°14'2 1.8
2014-Apr-23 01:33N 51°21' E 004°16'0 0.0
2014-Apr-23 00:33N 51°21' E 004°16'0 0.5
2014-Apr-22 23:34N 51°21' E 004°16'0 0.5
2014-Apr-22 22:33N 51°21' E 004°16'0 0.0
2014-Apr-22 21:33N 51°21' E 004°16'0 0.0
2014-Apr-22 20:33N 51°21' E 004°16'0 0.0
2014-Apr-22 19:33N 51°21' E 004°16'1 1.1
2014-Apr-22 18:34N 51°20' E 004°16'1 1.1
2014-Apr-22 17:33N 51°21' E 004°16'0 0.0
2014-Apr-22 16:33N 51°21' E 004°16'0 0.0
2014-Apr-22 15:33N 51°21' E 004°16'0 0.0
2014-Apr-22 14:33N 51°21' E 004°16'0 0.0
2014-Apr-22 13:32N 51°21' E 004°16'0 0.0
2014-Apr-22 12:33N 51°21' E 004°16'0 0.0
2014-Apr-22 11:33N 51°21' E 004°16'0 0.0
2014-Apr-22 10:33N 51°21' E 004°16'0 0.0
2014-Apr-22 09:33N 51°21' E 004°16'0 0.0
2014-Apr-22 08:33N 51°21' E 004°16'0 0.0
2014-Apr-22 07:33N 51°21' E 004°16'0 0.0
2014-Apr-22 06:33N 51°21' E 004°16'0 0.0
2014-Apr-22 05:33N 51°21' E 004°16'0 0.0
2014-Apr-22 04:33N 51°21' E 004°16'0 0.0
2014-Apr-22 03:33N 51°21' E 004°16'0 0.4
2014-Apr-22 02:33N 51°21' E 004°17'0 0.4
2014-Apr-22 01:33N 51°21' E 004°16'0 0.0
2014-Apr-22 00:33N 51°21' E 004°16'0 0.0
2014-Apr-21 23:33N 51°21' E 004°16'0 0.0
2014-Apr-21 22:33N 51°21' E 004°16'0 0.0
2014-Apr-21 21:33N 51°21' E 004°16'0 0.0
2014-Apr-21 20:33N 51°21' E 004°16'0 0.0
2014-Apr-21 19:33N 51°21' E 004°16'0 0.0
2014-Apr-21 18:33N 51°21' E 004°16'0 0.0
2014-Apr-21 17:33N 51°21' E 004°16'0 0.0
2014-Apr-21 16:34N 51°21' E 004°16'0 0.0
2014-Apr-21 15:34N 51°21' E 004°16'0 0.0
2014-Apr-21 14:33N 51°21' E 004°16'0 0.0
2014-Apr-21 13:31N 51°21' E 004°16'0 0.0
2014-Apr-21 12:31N 51°21' E 004°16'0 0.0
2014-Apr-21 11:33N 51°21' E 004°16'0 0.0
2014-Apr-21 10:34N 51°21' E 004°16'0 0.0
2014-Apr-21 09:34N 51°21' E 004°16'0 0.0
2014-Apr-21 08:33N 51°21' E 004°16'0 0.0
2014-Apr-21 07:33N 51°21' E 004°16'0 0.0
2014-Apr-21 06:33N 51°21' E 004°16'0 0.0
2014-Apr-21 05:34N 51°21' E 004°16'0 0.0
2014-Apr-21 04:34N 51°21' E 004°16'0 0.0
2014-Apr-21 03:33N 51°21' E 004°16'0 0.0
2014-Apr-21 02:33N 51°21' E 004°16'0 0.0
2014-Apr-21 01:32N 51°21' E 004°16'4 3.6
2014-Apr-21 00:34N 51°17' E 004°15'3 2.5
2014-Apr-20 23:34N 51°20' E 004°16'1 1.1
2014-Apr-20 22:33N 51°21' E 004°16'0 0.0
2014-Apr-20 21:33N 51°21' E 004°16'0 0.0
2014-Apr-20 20:33N 51°21' E 004°16'0 0.0
2014-Apr-20 19:33N 51°21' E 004°16'0 0.0
2014-Apr-20 18:33N 51°21' E 004°16'0 0.5
2014-Apr-20 17:33N 51°21' E 004°17'0 0.5
2014-Apr-20 16:33N 51°21' E 004°16'0 0.0
2014-Apr-20 15:33N 51°21' E 004°16'0 0.0
2014-Apr-20 14:33N 51°21' E 004°16'0 0.0
2014-Apr-20 13:33N 51°21' E 004°16'0 0.0
2014-Apr-20 12:33N 51°21' E 004°16'1 0.6
2014-Apr-20 11:34N 51°20' E 004°16'1 0.6
2014-Apr-20 10:33N 51°21' E 004°16'0 0.0
2014-Apr-20 09:33N 51°21' E 004°16'0 0.0
2014-Apr-20 08:33N 51°21' E 004°16'0 0.0
2014-Apr-20 07:33N 51°21' E 004°16'0 0.0
2014-Apr-20 06:33N 51°21' E 004°16'0 0.0
2014-Apr-20 05:33N 51°21' E 004°16'0 0.0
2014-Apr-20 04:33N 51°21' E 004°16'0 0.0
2014-Apr-20 03:33N 51°21' E 004°16'0 0.0
2014-Apr-20 02:33N 51°21' E 004°16'0 0.0
2014-Apr-20 01:33N 51°21' E 004°16'0 0.0
2014-Apr-20 00:33N 51°21' E 004°16'0 0.0
2014-Apr-19 23:33N 51°21' E 004°16'0 0.0
2014-Apr-19 22:33N 51°21' E 004°16'0 0.0
2014-Apr-19 21:33N 51°21' E 004°16'0 0.0
2014-Apr-19 20:33N 51°21' E 004°16'0 0.2
2014-Apr-19 19:34N 51°21' E 004°16'0 0.3
2014-Apr-19 18:34N 51°21' E 004°16'0 0.0
2014-Apr-19 17:33N 51°21' E 004°16'1 0.9
2014-Apr-19 16:33N 51°21' E 004°15'1 0.9
2014-Apr-19 15:33N 51°21' E 004°16'8 7.8
2014-Apr-19 14:33N 51°22' E 004°04'6 5.9
2014-Apr-19 13:33N 51°22' E 003°55'4 3.9
2014-Apr-19 12:34N 51°20' E 003°49'0 0.0
2014-Apr-19 11:34N 51°20' E 003°49'0 0.0
2014-Apr-19 10:34N 51°20' E 003°49'0 0.0
2014-Apr-19 09:34N 51°20' E 003°49'0 0.0
2014-Apr-19 08:33N 51°20' E 003°49'0 0.0
2014-Apr-19 07:34N 51°20' E 003°49'0 0.0
2014-Apr-19 06:34N 51°20' E 003°49'0 0.0
2014-Apr-19 05:34N 51°20' E 003°49'0 0.0
2014-Apr-19 04:34N 51°20' E 003°49'0 0.0
2014-Apr-19 03:34N 51°20' E 003°49'0 0.0
2014-Apr-19 02:33N 51°20' E 003°49'0 0.0
2014-Apr-19 01:34N 51°20' E 003°49'0 0.0
2014-Apr-19 00:34N 51°20' E 003°49'0 0.0
2014-Apr-18 23:33N 51°20' E 003°49'0 0.0
2014-Apr-18 22:34N 51°20' E 003°49'0 0.0
2014-Apr-18 21:34N 51°20' E 003°49'0 0.0
2014-Apr-18 20:33N 51°20' E 003°49'0 0.0
2014-Apr-18 19:33N 51°20' E 003°49'0 0.0
2014-Apr-18 18:34N 51°20' E 003°49'0 0.0
2014-Apr-18 17:34N 51°20' E 003°49'0 0.0
2014-Apr-18 16:34N 51°20' E 003°49'0 0.0
2014-Apr-18 15:34N 51°20' E 003°49'0 0.0
2014-Apr-18 14:33N 51°20' E 003°49'0 0.0
2014-Apr-18 13:34N 51°20' E 003°49'0 0.0
2014-Apr-18 12:34N 51°20' E 003°49'1 0.6
2014-Apr-18 11:34N 51°20' E 003°49'1 1.1
2014-Apr-18 10:33N 51°19' E 003°50'2 2.3
2014-Apr-18 09:33N 51°16' E 003°51'3 3.4
2014-Apr-18 08:33N 51°20' E 003°49'0 0.0
2014-Apr-18 07:34N 51°20' E 003°49'0 0.0
2014-Apr-18 06:34N 51°20' E 003°49'0 0.0
2014-Apr-18 05:34N 51°20' E 003°49'3 2.5
2014-Apr-18 04:33N 51°17' E 003°50'1 0.8
2014-Apr-18 03:28N 51°16' E 003°51'4 4.5
2014-Apr-18 02:34N 51°20' E 003°49'0 0.1
2014-Apr-18 01:34N 51°20' E 003°49'0 0.0
2014-Apr-18 00:34N 51°20' E 003°49'0 0.0
2014-Apr-17 23:34N 51°20' E 003°49'2 2.0
2014-Apr-17 22:34N 51°21' E 003°46'2 2.5
2014-Apr-17 21:33N 51°23' E 003°43'1 0.8
2014-Apr-17 20:33N 51°22' E 003°44'3 3.4
2014-Apr-17 19:33N 51°20' E 003°49'0 0.0
2014-Apr-17 18:34N 51°20' E 003°49'2 1.9
2014-Apr-17 17:33N 51°21' E 003°46'2 2.0
2014-Apr-17 16:34N 51°20' E 003°49'0 0.0
2014-Apr-17 15:34N 51°20' E 003°49'0 0.0
2014-Apr-17 14:33N 51°20' E 003°49'0 0.0
2014-Apr-17 13:33N 51°20' E 003°49'0 0.5
2014-Apr-17 12:34N 51°20' E 003°49'2 2.5
2014-Apr-17 11:34N 51°17' E 003°50'4 4.3
2014-Apr-17 10:33N 51°13' E 003°48'3 2.7
2014-Apr-17 09:33N 51°16' E 003°50'2 2.1
2014-Apr-17 08:33N 51°18' E 003°50'2 2.1
2014-Apr-17 07:34N 51°20' E 003°49'1 0.5
2014-Apr-17 06:34N 51°20' E 003°49'0 0.0
2014-Apr-17 05:34N 51°20' E 003°49'0 0.0
2014-Apr-17 04:33N 51°20' E 003°49'0 0.0
2014-Apr-17 03:34N 51°20' E 003°49'0 0.0
2014-Apr-17 02:34N 51°20' E 003°49'1 1.0
2014-Apr-17 01:33N 51°21' E 003°50'5 4.7
2014-Apr-17 00:33N 51°23' E 003°57'6 5.7
2014-Apr-16 23:33N 51°20' E 003°49'0 0.0
2014-Apr-16 22:34N 51°20' E 003°49'0 0.0
2014-Apr-16 21:34N 51°20' E 003°49'0 0.0
2014-Apr-16 20:33N 51°20' E 003°49'0 0.0
2014-Apr-16 19:34N 51°20' E 003°49'0 0.0
2014-Apr-16 18:34N 51°20' E 003°49'0 0.0
2014-Apr-16 17:33N 51°20' E 003°49'1 0.5
2014-Apr-16 16:34N 51°20' E 003°49'4 4.2
2014-Apr-16 15:33N 51°16' E 003°50'9 9.0
2014-Apr-16 14:34N 51°07' E 003°45'1 1.2
2014-Apr-16 13:33N 51°06' E 003°45'5 5.3
2014-Apr-16 12:33N 51°11' E 003°48'6 5.6
2014-Apr-16 11:33N 51°16' E 003°50'4 3.7
2014-Apr-16 10:33N 51°20' E 003°49'2 2.3
2014-Apr-16 09:33N 51°21' E 003°46'2 1.9
2014-Apr-16 08:34N 51°20' E 003°49'1 0.5
2014-Apr-16 07:33N 51°20' E 003°49'0 0.2
2014-Apr-16 06:34N 51°20' E 003°49'3 3.3
2014-Apr-16 05:33N 51°16' E 003°51'3 2.8
2014-Apr-16 04:33N 51°19' E 003°49'2 2.2
2014-Apr-16 03:34N 51°21' E 003°48'1 1.0
2014-Apr-16 02:34N 51°20' E 003°49'0 0.0
2014-Apr-16 01:34N 51°20' E 003°49'0 0.0
2014-Apr-16 00:34N 51°20' E 003°49'0 0.0
2014-Apr-15 23:34N 51°20' E 003°49'0 0.0
2014-Apr-15 22:34N 51°20' E 003°49'0 0.0
2014-Apr-15 21:34N 51°20' E 003°49'0 0.0
2014-Apr-15 20:34N 51°20' E 003°49'0 0.0
2014-Apr-15 19:34N 51°20' E 003°49'0 0.0
2014-Apr-15 18:33N 51°20' E 003°49'0 0.0
2014-Apr-15 17:34N 51°20' E 003°49'0 0.0
2014-Apr-15 16:34N 51°20' E 003°49'2 1.5
2014-Apr-15 15:34N 51°19' E 003°50'0 0.4
2014-Apr-15 14:33N 51°19' E 003°49'2 0.9
2014-Apr-15 12:34N 51°21' E 003°48'1 0.7
2014-Apr-15 11:34N 51°20' E 003°49'0 0.0
2014-Apr-15 10:34N 51°20' E 003°49'0 0.0
2014-Apr-15 09:34N 51°20' E 003°49'0 0.0
2014-Apr-15 08:34N 51°20' E 003°49'0 0.0
2014-Apr-15 07:34N 51°20' E 003°49'0 0.0
2014-Apr-15 06:34N 51°20' E 003°49'0 0.0
2014-Apr-15 05:34N 51°20' E 003°49'0 0.0
2014-Apr-15 03:34N 51°20' E 003°49'0 0.0
2014-Apr-15 02:34N 51°20' E 003°49'1 1.2
2014-Apr-15 01:34N 51°21' E 003°47'1 1.1
2014-Apr-15 00:34N 51°21' E 003°46'4 3.9
2014-Apr-14 23:34N 51°24' E 003°42'4 3.8
2014-Apr-14 22:34N 51°27' E 003°41'0 0.4
2014-Apr-14 21:34N 51°28' E 003°41'0 0.4
2014-Apr-14 20:34N 51°27' E 003°41'0 0.0
2014-Apr-14 19:34N 51°27' E 003°41'  

Dump ship's entire track history

sailing weather and tide predictions

Multratug 19 — PCHZ — position and weather